Heroic Leader — C6ZD2 — position and weather

sailwx.info

Track history (hours):
 
Tides and Currents Weather Stations Pressure Air Temp Water Temp Dewpoint Dewpoint Depression Visibility Wind Speed Wind Dir Waves Ship Positions

Heroic Leader

Last reported at 2016-Nov-30 01:15 UTC. Time now 2016-Dec-03 19:45 UTC.
Position N 42°18' W 070°15'.

Length 200 m; draft 8.1 m.

Type: Cargo ship. MMSI: 311052700.

Date/timePositionNaut miles runAvg speedWind from/ knotsBaromVisibWave heightAir tempDewpointWater temp
2016-Nov-30 01:15N 42°18' W 070°15'1116.4
2016-Nov-30 00:33N 42°19' W 070°31'1313.0
2016-Nov-29 23:34N 42°24' W 070°47'1010.4
2016-Nov-29 22:33N 42°20' W 070°60'4 3.8
2016-Nov-29 21:31N 42°23' W 071°03'0 0.0
2016-Nov-29 20:31N 42°23' W 071°03'0 0.0
2016-Nov-29 19:31N 42°23' W 071°03'0 0.0
2016-Nov-29 18:31N 42°23' W 071°03'0 0.0
2016-Nov-29 17:28N 42°23' W 071°03'0 0.0
2016-Nov-29 16:28N 42°23' W 071°03'0 0.0
2016-Nov-29 15:28N 42°23' W 071°03'0 0.0
2016-Nov-29 14:31N 42°23' W 071°03'0 0.0
2016-Nov-29 13:31N 42°23' W 071°03'0 0.0
2016-Nov-29 12:31N 42°23' W 071°03'0 0.0
2016-Nov-29 11:31N 42°23' W 071°03'0 0.0
2016-Nov-29 10:33N 42°23' W 071°03'5 4.9
2016-Nov-29 09:33N 42°20' W 070°58'10 9.6
2016-Nov-29 08:33N 42°23' W 070°46'8 8.4
2016-Nov-29 07:33N 42°17' W 070°38'8 8.4
2016-Nov-29 06:33N 42°10' W 070°31'8 8.4
2016-Nov-29 05:34N 42°02' W 070°28'52 9.6
2016-Nov-29 00:10N 41°25' W 071°17'711.0
2016-Nov-28 23:34N 41°31' W 071°21'7 6.4
2016-Nov-28 22:30N 41°37' W 071°24'0 0.0
2016-Nov-28 21:30N 41°37' W 071°24'0 0.0
2016-Nov-28 20:30N 41°37' W 071°24'0 0.0
2016-Nov-28 19:24N 41°37' W 071°24'0 0.0
2016-Nov-28 18:30N 41°37' W 071°24'0 0.0
2016-Nov-28 17:30N 41°37' W 071°24'0 0.0
2016-Nov-28 16:30N 41°37' W 071°24'0 0.0
2016-Nov-28 15:24N 41°37' W 071°24'0 0.0
2016-Nov-28 14:30N 41°37' W 071°24'0 0.0
2016-Nov-28 13:30N 41°37' W 071°24'0 0.0
2016-Nov-28 12:29N 41°37' W 071°24'0 0.5
2016-Nov-28 11:33N 41°37' W 071°24'8 8.1
2016-Nov-28 10:32N 41°29' W 071°21'233 7.3
2016-Nov-27 02:32N 38°50' W 075°03'1212.1
2016-Nov-27 01:34N 39°01' W 075°09'1515.0
2016-Nov-27 00:34N 39°14' W 075°18'1313.5
2016-Nov-26 23:34N 39°24' W 075°30'1010.2
2016-Nov-26 22:33N 39°34' W 075°35'9 9.1
2016-Nov-26 21:34N 39°32' W 075°46'8 8.3
2016-Nov-26 20:33N 39°29' W 075°56'1212.1
2016-Nov-26 19:34N 39°22' W 076°09'1412.3
2016-Nov-26 18:27N 39°10' W 076°18'1010.7
2016-Nov-26 17:33N 39°12' W 076°30'3 2.8
2016-Nov-26 16:31N 39°14' W 076°32'0 0.0
2016-Nov-26 15:31N 39°14' W 076°32'0 0.0
2016-Nov-26 14:31N 39°14' W 076°32'0 0.0
2016-Nov-26 13:31N 39°14' W 076°32'0 0.0
2016-Nov-26 12:31N 39°14' W 076°32'0 0.0
2016-Nov-26 11:31N 39°14' W 076°32'0 0.0
2016-Nov-26 10:31N 39°14' W 076°32'0 0.0
2016-Nov-26 09:31N 39°14' W 076°32'0 0.0
2016-Nov-26 08:31N 39°14' W 076°32'0 0.0
2016-Nov-26 07:31N 39°14' W 076°32'0 0.0
2016-Nov-26 06:31N 39°14' W 076°32'0 0.0
2016-Nov-26 05:31N 39°14' W 076°32'0 0.0
2016-Nov-26 04:31N 39°14' W 076°32'0 0.0
2016-Nov-26 03:31N 39°14' W 076°32'0 0.0
2016-Nov-26 02:31N 39°14' W 076°32'0 0.0
2016-Nov-26 01:31N 39°14' W 076°32'0 0.0
2016-Nov-26 00:31N 39°14' W 076°32'0 0.0
2016-Nov-25 23:31N 39°14' W 076°32'0 0.0
2016-Nov-25 22:31N 39°14' W 076°32'0 0.0
2016-Nov-25 21:31N 39°14' W 076°32'0 0.0
2016-Nov-25 20:31N 39°14' W 076°32'0 0.0
2016-Nov-25 19:31N 39°14' W 076°32'0 0.0
2016-Nov-25 18:31N 39°14' W 076°32'0 0.0
2016-Nov-25 17:31N 39°14' W 076°32'0 0.2
2016-Nov-25 16:33N 39°14' W 076°32'9 8.7
2016-Nov-25 15:33N 39°08' W 076°24'1414.5
2016-Nov-25 14:33N 38°54' W 076°24'1817.7
2016-Nov-25 13:33N 38°36' W 076°26'1817.9
2016-Nov-25 12:34N 38°19' W 076°18'1918.2
2016-Nov-25 11:31N 38°01' W 076°12'6015.0
2016-Nov-25 07:29N 37°01' W 076°03'9 9.9
2016-Nov-25 06:33N 36°54' W 075°54'8 7.7
2016-Nov-25 05:28N 36°49' W 075°46'  
Track history (hours):
 
Tides and Currents Weather Stations Pressure Air Temp Water Temp Dewpoint Dewpoint Depression Visibility Wind Speed Wind Dir Waves Ship Positions

Heroic Leader

Last reported at 2016-Nov-30 01:15 UTC. Time now 2016-Dec-03 19:45 UTC.
Position N 42°18' W 070°15'.

Length 200 m; draft 8.1 m.

Type: Cargo ship. MMSI: 311052700.

Date/timePositionNaut miles runAvg speedWind from/ knotsBaromVisibWave heightAir tempDewpointWater temp
2016-Nov-30 01:15N 42°18' W 070°15'1116.4
2016-Nov-30 00:33N 42°19' W 070°31'1313.0
2016-Nov-29 23:34N 42°24' W 070°47'1010.4
2016-Nov-29 22:33N 42°20' W 070°60'4 3.8
2016-Nov-29 21:31N 42°23' W 071°03'0 0.0
2016-Nov-29 20:31N 42°23' W 071°03'0 0.0
2016-Nov-29 19:31N 42°23' W 071°03'0 0.0
2016-Nov-29 18:31N 42°23' W 071°03'0 0.0
2016-Nov-29 17:28N 42°23' W 071°03'0 0.0
2016-Nov-29 16:28N 42°23' W 071°03'0 0.0
2016-Nov-29 15:28N 42°23' W 071°03'0 0.0
2016-Nov-29 14:31N 42°23' W 071°03'0 0.0
2016-Nov-29 13:31N 42°23' W 071°03'0 0.0
2016-Nov-29 12:31N 42°23' W 071°03'0 0.0
2016-Nov-29 11:31N 42°23' W 071°03'0 0.0
2016-Nov-29 10:33N 42°23' W 071°03'5 4.9
2016-Nov-29 09:33N 42°20' W 070°58'10 9.6
2016-Nov-29 08:33N 42°23' W 070°46'8 8.4
2016-Nov-29 07:33N 42°17' W 070°38'8 8.4
2016-Nov-29 06:33N 42°10' W 070°31'8 8.4
2016-Nov-29 05:34N 42°02' W 070°28'52 9.6
2016-Nov-29 00:10N 41°25' W 071°17'711.0
2016-Nov-28 23:34N 41°31' W 071°21'7 6.4
2016-Nov-28 22:30N 41°37' W 071°24'0 0.0
2016-Nov-28 21:30N 41°37' W 071°24'0 0.0
2016-Nov-28 20:30N 41°37' W 071°24'0 0.0
2016-Nov-28 19:24N 41°37' W 071°24'0 0.0
2016-Nov-28 18:30N 41°37' W 071°24'0 0.0
2016-Nov-28 17:30N 41°37' W 071°24'0 0.0
2016-Nov-28 16:30N 41°37' W 071°24'0 0.0
2016-Nov-28 15:24N 41°37' W 071°24'0 0.0
2016-Nov-28 14:30N 41°37' W 071°24'0 0.0
2016-Nov-28 13:30N 41°37' W 071°24'0 0.0
2016-Nov-28 12:29N 41°37' W 071°24'0 0.5
2016-Nov-28 11:33N 41°37' W 071°24'8 8.1
2016-Nov-28 10:32N 41°29' W 071°21'233 7.3
2016-Nov-27 02:32N 38°50' W 075°03'1212.1
2016-Nov-27 01:34N 39°01' W 075°09'1515.0
2016-Nov-27 00:34N 39°14' W 075°18'1313.5
2016-Nov-26 23:34N 39°24' W 075°30'1010.2
2016-Nov-26 22:33N 39°34' W 075°35'9 9.1
2016-Nov-26 21:34N 39°32' W 075°46'8 8.3
2016-Nov-26 20:33N 39°29' W 075°56'1212.1
2016-Nov-26 19:34N 39°22' W 076°09'1412.3
2016-Nov-26 18:27N 39°10' W 076°18'1010.7
2016-Nov-26 17:33N 39°12' W 076°30'3 2.8
2016-Nov-26 16:31N 39°14' W 076°32'0 0.0
2016-Nov-26 15:31N 39°14' W 076°32'0 0.0
2016-Nov-26 14:31N 39°14' W 076°32'0 0.0
2016-Nov-26 13:31N 39°14' W 076°32'0 0.0
2016-Nov-26 12:31N 39°14' W 076°32'0 0.0
2016-Nov-26 11:31N 39°14' W 076°32'0 0.0
2016-Nov-26 10:31N 39°14' W 076°32'0 0.0
2016-Nov-26 09:31N 39°14' W 076°32'0 0.0
2016-Nov-26 08:31N 39°14' W 076°32'0 0.0
2016-Nov-26 07:31N 39°14' W 076°32'0 0.0
2016-Nov-26 06:31N 39°14' W 076°32'0 0.0
2016-Nov-26 05:31N 39°14' W 076°32'0 0.0
2016-Nov-26 04:31N 39°14' W 076°32'0 0.0
2016-Nov-26 03:31N 39°14' W 076°32'0 0.0
2016-Nov-26 02:31N 39°14' W 076°32'0 0.0
2016-Nov-26 01:31N 39°14' W 076°32'0 0.0
2016-Nov-26 00:31N 39°14' W 076°32'0 0.0
2016-Nov-25 23:31N 39°14' W 076°32'0 0.0
2016-Nov-25 22:31N 39°14' W 076°32'0 0.0
2016-Nov-25 21:31N 39°14' W 076°32'0 0.0
2016-Nov-25 20:31N 39°14' W 076°32'0 0.0
2016-Nov-25 19:31N 39°14' W 076°32'0 0.0
2016-Nov-25 18:31N 39°14' W 076°32'0 0.0
2016-Nov-25 17:31N 39°14' W 076°32'0 0.2
2016-Nov-25 16:33N 39°14' W 076°32'9 8.7
2016-Nov-25 15:33N 39°08' W 076°24'1414.5
2016-Nov-25 14:33N 38°54' W 076°24'1817.7
2016-Nov-25 13:33N 38°36' W 076°26'1817.9
2016-Nov-25 12:34N 38°19' W 076°18'1918.2
2016-Nov-25 11:31N 38°01' W 076°12'6015.0
2016-Nov-25 07:29N 37°01' W 076°03'9 9.9
2016-Nov-25 06:33N 36°54' W 075°54'8 7.7
2016-Nov-25 05:28N 36°49' W 075°46'  

Dump ship's entire track history